sensor_id;sensor_type;location;lat;lon;timestamp;pressure;altitude;pressure_sealevel;temperature;humidity
36932;BME280;22847;42.654;23.370;2022-07-03T00:01:43;95056.50;;;23.53;62.01
36932;BME280;22847;42.654;23.370;2022-07-03T00:04:09;94945.63;;;22.71;62.27
36932;BME280;22847;42.654;23.370;2022-07-03T00:06:34;94920.31;;;22.55;63.05
36932;BME280;22847;42.654;23.370;2022-07-03T00:09:03;94978.56;;;22.57;63.13
36932;BME280;22847;42.654;23.370;2022-07-03T00:11:29;95071.41;;;23.23;64.05
36932;BME280;22847;42.654;23.370;2022-07-03T00:13:54;95118.88;;;23.26;65.15
36932;BME280;22847;42.654;23.370;2022-07-03T00:16:20;95133.88;;;23.07;66.08
36932;BME280;22847;42.654;23.370;2022-07-03T00:18:45;95059.50;;;22.81;65.91
36932;BME280;22847;42.654;23.370;2022-07-03T00:21:12;95099.72;;;23.04;66.19
36932;BME280;22847;42.654;23.370;2022-07-03T00:23:44;95138.94;;;23.22;66.28
36932;BME280;22847;42.654;23.370;2022-07-03T00:26:12;95115.44;;;23.12;66.53
36932;BME280;22847;42.654;23.370;2022-07-03T00:28:40;95110.94;;;23.06;66.33
36932;BME280;22847;42.654;23.370;2022-07-03T00:31:07;95092.56;;;22.98;66.16
36932;BME280;22847;42.654;23.370;2022-07-03T00:33:33;95105.28;;;22.89;66.70
36932;BME280;22847;42.654;23.370;2022-07-03T00:35:59;95066.22;;;22.96;66.80
36932;BME280;22847;42.654;23.370;2022-07-03T00:38:26;94998.84;;;22.51;65.76
36932;BME280;22847;42.654;23.370;2022-07-03T00:40:51;95054.31;;;22.99;65.40
36932;BME280;22847;42.654;23.370;2022-07-03T00:43:17;94903.88;;;22.20;65.33
36932;BME280;22847;42.654;23.370;2022-07-03T00:45:47;95054.00;;;23.20;65.27
36932;BME280;22847;42.654;23.370;2022-07-03T00:48:15;95122.44;;;23.51;64.57
36932;BME280;22847;42.654;23.370;2022-07-03T00:50:48;95092.56;;;23.49;64.20
36932;BME280;22847;42.654;23.370;2022-07-03T00:53:27;95037.84;;;23.15;65.02
36932;BME280;22847;42.654;23.370;2022-07-03T00:55:54;95029.88;;;23.15;65.20
36932;BME280;22847;42.654;23.370;2022-07-03T00:58:21;94916.84;;;22.48;64.32
36932;BME280;22847;42.654;23.370;2022-07-03T01:00:48;95082.97;;;23.41;64.22
36932;BME280;22847;42.654;23.370;2022-07-03T01:03:17;95051.59;;;23.12;64.33
36932;BME280;22847;42.654;23.370;2022-07-03T01:05:54;94888.22;;;22.06;64.35
36932;BME280;22847;42.654;23.370;2022-07-03T01:08:42;94739.81;;;20.94;65.10
36932;BME280;22847;42.654;23.370;2022-07-03T01:11:43;95082.31;;;23.08;65.45
36932;BME280;22847;42.654;23.370;2022-07-03T01:17:34;95013.16;;;22.50;65.40
36932;BME280;22847;42.654;23.370;2022-07-03T01:20:04;94888.66;;;21.83;65.58
36932;BME280;22847;42.654;23.370;2022-07-03T01:22:43;95084.44;;;22.80;66.51
36932;BME280;22847;42.654;23.370;2022-07-03T01:25:13;95069.13;;;22.82;65.82
36932;BME280;22847;42.654;23.370;2022-07-03T01:30:23;95087.09;;;22.80;66.19
36932;BME280;22847;42.654;23.370;2022-07-03T01:33:17;94906.66;;;21.74;66.83
36932;BME280;22847;42.654;23.370;2022-07-03T01:36:03;94891.53;;;21.75;66.94
36932;BME280;22847;42.654;23.370;2022-07-03T01:41:01;95006.03;;;22.38;65.78
36932;BME280;22847;42.654;23.370;2022-07-03T01:43:33;95064.25;;;22.59;65.75
36932;BME280;22847;42.654;23.370;2022-07-03T01:46:00;95074.44;;;22.75;65.90
36932;BME280;22847;42.654;23.370;2022-07-03T01:48:27;95074.03;;;22.78;65.61
36932;BME280;22847;42.654;23.370;2022-07-03T01:50:54;95071.19;;;22.73;65.70
36932;BME280;22847;42.654;23.370;2022-07-03T01:53:23;95075.66;;;22.86;65.21
36932;BME280;22847;42.654;23.370;2022-07-03T01:55:50;95071.75;;;22.88;65.05
36932;BME280;22847;42.654;23.370;2022-07-03T01:58:16;95076.47;;;22.80;65.41
36932;BME280;22847;42.654;23.370;2022-07-03T02:03:32;95071.97;;;22.87;65.50
36932;BME280;22847;42.654;23.370;2022-07-03T02:06:11;94909.28;;;22.01;64.52
36932;BME280;22847;42.654;23.370;2022-07-03T02:11:21;95020.88;;;22.78;64.44
36932;BME280;22847;42.654;23.370;2022-07-03T02:17:05;95075.47;;;23.25;63.69
36932;BME280;22847;42.654;23.370;2022-07-03T02:19:43;95072.16;;;23.36;63.12
36932;BME280;22847;42.654;23.370;2022-07-03T02:22:11;94914.13;;;22.17;63.55
36932;BME280;22847;42.654;23.370;2022-07-03T02:24:46;95090.16;;;22.96;64.49
36932;BME280;22847;42.654;23.370;2022-07-03T02:27:25;95089.47;;;23.14;63.83
36932;BME280;22847;42.654;23.370;2022-07-03T02:30:02;94885.56;;;22.06;64.08
36932;BME280;22847;42.654;23.370;2022-07-03T02:32:31;94881.09;;;22.06;63.25
36932;BME280;22847;42.654;23.370;2022-07-03T02:35:27;95076.75;;;23.16;64.23
36932;BME280;22847;42.654;23.370;2022-07-03T02:38:01;94916.53;;;22.25;63.48
36932;BME280;22847;42.654;23.370;2022-07-03T02:40:40;95082.06;;;23.16;63.73
36932;BME280;22847;42.654;23.370;2022-07-03T02:45:55;95082.06;;;23.16;64.27
36932;BME280;22847;42.654;23.370;2022-07-03T02:50:50;95084.16;;;23.07;64.86
36932;BME280;22847;42.654;23.370;2022-07-03T02:53:44;95112.97;;;23.10;64.55
36932;BME280;22847;42.654;23.370;2022-07-03T02:56:34;95095.19;;;23.11;64.38
36932;BME280;22847;42.654;23.370;2022-07-03T03:06:35;95113.16;;;23.22;63.40
36932;BME280;22847;42.654;23.370;2022-07-03T03:09:03;94949.91;;;22.14;63.63
36932;BME280;22847;42.654;23.370;2022-07-03T03:11:39;95099.47;;;23.19;63.28
36932;BME280;22847;42.654;23.370;2022-07-03T03:14:10;95083.81;;;22.84;64.49
36932;BME280;22847;42.654;23.370;2022-07-03T03:17:01;95052.31;;;22.88;65.02
36932;BME280;22847;42.654;23.370;2022-07-03T03:19:25;95077.00;;;23.01;63.68
36932;BME280;22847;42.654;23.370;2022-07-03T03:24:17;95114.78;;;23.23;63.32
36932;BME280;22847;42.654;23.370;2022-07-03T03:26:43;94662.84;;;20.43;63.07
36932;BME280;22847;42.654;23.370;2022-07-03T03:29:09;95134.00;;;23.32;62.87
36932;BME280;22847;42.654;23.370;2022-07-03T03:31:34;95104.94;;;23.30;63.44
36932;BME280;22847;42.654;23.370;2022-07-03T03:34:00;95085.81;;;23.02;63.85
36932;BME280;22847;42.654;23.370;2022-07-03T03:36:26;94919.69;;;22.02;64.67
36932;BME280;22847;42.654;23.370;2022-07-03T03:38:53;95081.34;;;22.96;64.65
36932;BME280;22847;42.654;23.370;2022-07-03T03:41:19;94922.53;;;22.07;64.79
36932;BME280;22847;42.654;23.370;2022-07-03T03:43:45;95077.34;;;23.18;63.96
36932;BME280;22847;42.654;23.370;2022-07-03T03:46:10;95111.19;;;23.42;64.09
36932;BME280;22847;42.654;23.370;2022-07-03T03:48:36;95094.53;;;23.22;64.82
36932;BME280;22847;42.654;23.370;2022-07-03T03:51:03;95133.38;;;23.30;64.91
36932;BME280;22847;42.654;23.370;2022-07-03T03:53:29;95106.06;;;23.03;65.07
36932;BME280;22847;42.654;23.370;2022-07-03T03:58:30;95108.13;;;23.52;63.96
36932;BME280;22847;42.654;23.370;2022-07-03T04:00:57;95062.53;;;23.35;63.13
36932;BME280;22847;42.654;23.370;2022-07-03T04:03:23;94947.44;;;22.77;63.01
36932;BME280;22847;42.654;23.370;2022-07-03T04:05:49;95123.03;;;23.91;63.05
36932;BME280;22847;42.654;23.370;2022-07-03T04:08:14;95138.88;;;24.11;61.95
36932;BME280;22847;42.654;23.370;2022-07-03T04:10:40;95148.22;;;24.26;61.38
36932;BME280;22847;42.654;23.370;2022-07-03T04:13:05;94962.16;;;23.42;61.38
36932;BME280;22847;42.654;23.370;2022-07-03T04:15:31;95068.56;;;24.36;61.11
36932;BME280;22847;42.654;23.370;2022-07-03T04:17:56;95103.00;;;24.63;61.63
36932;BME280;22847;42.654;23.370;2022-07-03T04:20:22;95083.38;;;24.32;62.28
36932;BME280;22847;42.654;23.370;2022-07-03T04:22:47;95109.06;;;24.70;61.95
36932;BME280;22847;42.654;23.370;2022-07-03T04:25:16;95080.19;;;24.67;61.19
36932;BME280;22847;42.654;23.370;2022-07-03T04:27:41;95108.81;;;25.14;60.66
36932;BME280;22847;42.654;23.370;2022-07-03T04:30:07;94972.16;;;24.39;60.10
36932;BME280;22847;42.654;23.370;2022-07-03T04:32:36;95061.28;;;25.05;60.40
36932;BME280;22847;42.654;23.370;2022-07-03T04:35:01;95115.31;;;25.18;60.86
36932;BME280;22847;42.654;23.370;2022-07-03T04:37:27;95111.16;;;25.22;60.81
36932;BME280;22847;42.654;23.370;2022-07-03T04:39:52;94950.69;;;24.34;59.65
36932;BME280;22847;42.654;23.370;2022-07-03T04:42:18;95089.81;;;25.22;60.03
36932;BME280;22847;42.654;23.370;2022-07-03T04:44:43;95093.94;;;25.37;59.35
36932;BME280;22847;42.654;23.370;2022-07-03T04:47:09;94909.22;;;24.20;59.19
36932;BME280;22847;42.654;23.370;2022-07-03T04:49:34;95109.59;;;25.33;58.99
36932;BME280;22847;42.654;23.370;2022-07-03T04:52:00;95094.28;;;25.58;58.24
36932;BME280;22847;42.654;23.370;2022-07-03T04:54:25;95105.22;;;25.57;57.38
36932;BME280;22847;42.654;23.370;2022-07-03T04:56:51;95049.22;;;25.32;58.43
36932;BME280;22847;42.654;23.370;2022-07-03T04:59:16;95091.41;;;25.60;57.95
36932;BME280;22847;42.654;23.370;2022-07-03T05:01:41;95011.28;;;25.30;58.44
36932;BME280;22847;42.654;23.370;2022-07-03T05:04:07;95094.38;;;26.23;56.87
36932;BME280;22847;42.654;23.370;2022-07-03T05:06:32;95130.56;;;26.07;57.42
36932;BME280;22847;42.654;23.370;2022-07-03T05:08:58;95047.78;;;25.77;57.54
36932;BME280;22847;42.654;23.370;2022-07-03T05:11:23;95092.03;;;26.27;56.57
36932;BME280;22847;42.654;23.370;2022-07-03T05:13:49;95034.41;;;25.66;58.51
36932;BME280;22847;42.654;23.370;2022-07-03T05:16:14;95084.38;;;26.30;57.52
36932;BME280;22847;42.654;23.370;2022-07-03T05:18:39;95089.38;;;26.50;56.58
36932;BME280;22847;42.654;23.370;2022-07-03T05:21:05;95089.84;;;26.58;55.25
36932;BME280;22847;42.654;23.370;2022-07-03T05:23:30;95086.69;;;26.61;55.59
36932;BME280;22847;42.654;23.370;2022-07-03T05:25:56;94980.78;;;26.26;54.60
36932;BME280;22847;42.654;23.370;2022-07-03T05:28:23;95095.03;;;27.12;53.51
36932;BME280;22847;42.654;23.370;2022-07-03T05:30:49;95097.44;;;27.36;54.42
36932;BME280;22847;42.654;23.370;2022-07-03T05:33:14;95104.44;;;27.66;53.62
36932;BME280;22847;42.654;23.370;2022-07-03T05:35:40;95083.53;;;27.79;52.63
36932;BME280;22847;42.654;23.370;2022-07-03T05:38:05;95092.59;;;27.62;53.05
36932;BME280;22847;42.654;23.370;2022-07-03T05:40:31;95068.75;;;27.08;54.06
36932;BME280;22847;42.654;23.370;2022-07-03T05:42:56;95078.84;;;27.58;53.15
36932;BME280;22847;42.654;23.370;2022-07-03T05:45:22;95073.16;;;27.55;52.23
36932;BME280;22847;42.654;23.370;2022-07-03T05:47:47;95103.34;;;27.78;52.55
36932;BME280;22847;42.654;23.370;2022-07-03T05:50:13;95114.22;;;27.72;51.82
36932;BME280;22847;42.654;23.370;2022-07-03T05:52:38;95061.53;;;27.49;52.41
36932;BME280;22847;42.654;23.370;2022-07-03T05:55:04;95115.13;;;27.77;52.56
36932;BME280;22847;42.654;23.370;2022-07-03T05:57:30;95102.19;;;27.74;53.06
36932;BME280;22847;42.654;23.370;2022-07-03T05:59:55;95081.03;;;27.61;52.51
36932;BME280;22847;42.654;23.370;2022-07-03T06:02:21;94982.31;;;26.85;52.19
36932;BME280;22847;42.654;23.370;2022-07-03T06:04:46;94916.38;;;26.79;52.10
36932;BME280;22847;42.654;23.370;2022-07-03T06:07:12;95107.59;;;27.91;52.02
36932;BME280;22847;42.654;23.370;2022-07-03T06:09:37;95106.69;;;28.14;51.54
36932;BME280;22847;42.654;23.370;2022-07-03T06:12:03;95103.53;;;28.50;50.93
36932;BME280;22847;42.654;23.370;2022-07-03T06:14:28;95097.91;;;28.52;50.13
36932;BME280;22847;42.654;23.370;2022-07-03T06:16:54;95102.09;;;28.64;49.82
36932;BME280;22847;42.654;23.370;2022-07-03T06:19:19;95113.44;;;28.66;49.80
36932;BME280;22847;42.654;23.370;2022-07-03T06:21:44;95028.22;;;28.07;50.43
36932;BME280;22847;42.654;23.370;2022-07-03T06:24:10;95097.63;;;28.70;49.78
36932;BME280;22847;42.654;23.370;2022-07-03T06:26:35;95112.53;;;28.77;49.40
36932;BME280;22847;42.654;23.370;2022-07-03T06:29:01;95100.28;;;29.03;48.65
36932;BME280;22847;42.654;23.370;2022-07-03T06:31:26;95142.56;;;29.51;47.94
36932;BME280;22847;42.654;23.370;2022-07-03T06:33:52;95124.13;;;29.60;47.67
36932;BME280;22847;42.654;23.370;2022-07-03T06:36:17;95112.09;;;29.24;49.01
36932;BME280;22847;42.654;23.370;2022-07-03T06:38:43;95091.78;;;29.11;48.93
36932;BME280;22847;42.654;23.370;2022-07-03T06:41:08;94955.19;;;28.55;48.04
36932;BME280;22847;42.654;23.370;2022-07-03T06:43:33;95093.13;;;29.09;46.53
36932;BME280;22847;42.654;23.370;2022-07-03T06:45:59;95105.09;;;29.40;46.97
36932;BME280;22847;42.654;23.370;2022-07-03T06:48:25;94980.44;;;28.75;46.23
36932;BME280;22847;42.654;23.370;2022-07-03T06:50:50;95065.81;;;29.17;46.52
36932;BME280;22847;42.654;23.370;2022-07-03T06:53:16;95059.63;;;29.16;47.43
36932;BME280;22847;42.654;23.370;2022-07-03T06:55:41;94921.97;;;27.84;47.90
36932;BME280;22847;42.654;23.370;2022-07-03T06:58:07;94924.81;;;28.49;47.42
36932;BME280;22847;42.654;23.370;2022-07-03T07:00:32;95104.50;;;29.59;47.39
36932;BME280;22847;42.654;23.370;2022-07-03T07:02:58;95042.69;;;29.16;47.35
36932;BME280;22847;42.654;23.370;2022-07-03T07:05:23;95069.56;;;29.16;46.04
36932;BME280;22847;42.654;23.370;2022-07-03T07:07:49;95102.50;;;29.50;47.14
36932;BME280;22847;42.654;23.370;2022-07-03T07:10:15;94917.06;;;28.74;46.50
36932;BME280;22847;42.654;23.370;2022-07-03T07:12:40;95107.56;;;30.22;45.70
36932;BME280;22847;42.654;23.370;2022-07-03T07:15:06;95091.84;;;30.40;44.45
36932;BME280;22847;42.654;23.370;2022-07-03T07:17:31;95050.53;;;29.66;45.05
36932;BME280;22847;42.654;23.370;2022-07-03T07:19:57;95080.22;;;29.49;45.53
36932;BME280;22847;42.654;23.370;2022-07-03T07:22:22;95060.53;;;29.44;45.59
36932;BME280;22847;42.654;23.370;2022-07-03T07:24:48;95135.81;;;29.70;45.32
36932;BME280;22847;42.654;23.370;2022-07-03T07:27:13;95002.34;;;29.33;46.15
36932;BME280;22847;42.654;23.370;2022-07-03T07:29:39;95088.44;;;30.18;44.99
36932;BME280;22847;42.654;23.370;2022-07-03T07:32:04;95036.38;;;29.76;46.00
36932;BME280;22847;42.654;23.370;2022-07-03T07:34:30;95046.72;;;30.16;46.24
36932;BME280;22847;42.654;23.370;2022-07-03T07:36:55;95014.72;;;30.19;44.96
36932;BME280;22847;42.654;23.370;2022-07-03T07:39:21;95073.19;;;30.61;45.81
36932;BME280;22847;42.654;23.370;2022-07-03T07:41:46;95078.94;;;30.74;45.77
36932;BME280;22847;42.654;23.370;2022-07-03T07:44:12;95058.06;;;30.54;44.73
36932;BME280;22847;42.654;23.370;2022-07-03T07:46:37;95050.00;;;30.23;44.76
36932;BME280;22847;42.654;23.370;2022-07-03T07:49:03;95015.84;;;29.64;45.64
36932;BME280;22847;42.654;23.370;2022-07-03T07:51:28;95043.63;;;30.02;45.80
36932;BME280;22847;42.654;23.370;2022-07-03T07:53:54;95088.56;;;30.33;45.10
36932;BME280;22847;42.654;23.370;2022-07-03T07:56:23;94932.22;;;29.61;45.51
36932;BME280;22847;42.654;23.370;2022-07-03T07:58:49;95071.03;;;30.58;45.04
36932;BME280;22847;42.654;23.370;2022-07-03T08:01:15;94936.03;;;29.38;44.29
36932;BME280;22847;42.654;23.370;2022-07-03T08:03:59;95082.56;;;30.21;44.50
36932;BME280;22847;42.654;23.370;2022-07-03T08:06:43;95082.94;;;30.35;45.16
36932;BME280;22847;42.654;23.370;2022-07-03T08:09:08;95038.53;;;30.37;44.41
36932;BME280;22847;42.654;23.370;2022-07-03T08:11:34;95076.97;;;30.65;45.22
36932;BME280;22847;42.654;23.370;2022-07-03T08:13:59;95049.16;;;30.54;44.63
36932;BME280;22847;42.654;23.370;2022-07-03T08:16:24;94853.06;;;29.15;44.92
36932;BME280;22847;42.654;23.370;2022-07-03T08:18:50;95062.75;;;30.37;44.35
36932;BME280;22847;42.654;23.370;2022-07-03T08:21:18;95034.13;;;30.26;44.93
36932;BME280;22847;42.654;23.370;2022-07-03T08:23:43;94837.00;;;28.93;45.58
36932;BME280;22847;42.654;23.370;2022-07-03T08:26:08;94923.09;;;29.62;45.40
36932;BME280;22847;42.654;23.370;2022-07-03T08:28:34;95048.84;;;30.45;44.74
36932;BME280;22847;42.654;23.370;2022-07-03T08:30:59;95056.63;;;30.10;45.38
36932;BME280;22847;42.654;23.370;2022-07-03T08:33:26;95057.94;;;30.44;45.91
36932;BME280;22847;42.654;23.370;2022-07-03T08:35:52;95090.16;;;30.29;45.92
36932;BME280;22847;42.654;23.370;2022-07-03T08:38:17;94918.53;;;29.62;45.38
36932;BME280;22847;42.654;23.370;2022-07-03T08:40:44;94881.19;;;29.66;45.64
36932;BME280;22847;42.654;23.370;2022-07-03T08:43:10;94868.16;;;29.48;44.07
36932;BME280;22847;42.654;23.370;2022-07-03T08:45:37;95058.28;;;30.16;47.55
36932;BME280;22847;42.654;23.370;2022-07-03T08:48:04;94854.91;;;29.78;46.34
36932;BME280;22847;42.654;23.370;2022-07-03T08:50:32;95054.34;;;31.03;43.92
36932;BME280;22847;42.654;23.370;2022-07-03T08:52:59;94899.03;;;30.19;44.33
36932;BME280;22847;42.654;23.370;2022-07-03T08:55:25;95052.56;;;31.28;40.28
36932;BME280;22847;42.654;23.370;2022-07-03T08:57:50;94881.09;;;30.35;42.33
36932;BME280;22847;42.654;23.370;2022-07-03T09:00:18;95085.28;;;31.57;41.43
36932;BME280;22847;42.654;23.370;2022-07-03T09:02:46;95021.81;;;31.19;43.50
36932;BME280;22847;42.654;23.370;2022-07-03T09:05:13;95041.91;;;31.69;40.91
36932;BME280;22847;42.654;23.370;2022-07-03T09:07:40;95009.16;;;31.25;42.09
36932;BME280;22847;42.654;23.370;2022-07-03T09:10:09;95047.00;;;31.55;41.50
36932;BME280;22847;42.654;23.370;2022-07-03T09:12:35;95045.19;;;31.09;41.08
36932;BME280;22847;42.654;23.370;2022-07-03T09:15:02;95032.28;;;31.11;40.78
36932;BME280;22847;42.654;23.370;2022-07-03T09:17:28;94975.84;;;30.94;41.60
36932;BME280;22847;42.654;23.370;2022-07-03T09:19:58;95011.09;;;31.44;41.91
36932;BME280;22847;42.654;23.370;2022-07-03T09:22:29;94861.28;;;30.51;41.40
36932;BME280;22847;42.654;23.370;2022-07-03T09:27:30;95005.69;;;31.39;42.95
36932;BME280;22847;42.654;23.370;2022-07-03T09:29:59;95039.22;;;31.74;41.10
36932;BME280;22847;42.654;23.370;2022-07-03T09:32:25;94860.84;;;30.79;42.59
36932;BME280;22847;42.654;23.370;2022-07-03T09:37:51;95015.53;;;32.42;40.22
36932;BME280;22847;42.654;23.370;2022-07-03T09:40:18;95029.75;;;32.88;40.24
36932;BME280;22847;42.654;23.370;2022-07-03T09:43:07;95024.56;;;33.16;39.50
36932;BME280;22847;42.654;23.370;2022-07-03T09:45:54;94880.06;;;31.84;39.48
36932;BME280;22847;42.654;23.370;2022-07-03T09:48:46;95025.00;;;32.19;40.46
36932;BME280;22847;42.654;23.370;2022-07-03T09:51:18;94856.53;;;30.98;41.26
36932;BME280;22847;42.654;23.370;2022-07-03T09:56:10;94985.72;;;31.35;39.93
36932;BME280;22847;42.654;23.370;2022-07-03T09:58:35;94888.09;;;30.98;39.84
36932;BME280;22847;42.654;23.370;2022-07-03T10:01:18;95011.97;;;31.80;38.67
36932;BME280;22847;42.654;23.370;2022-07-03T10:03:43;95028.16;;;31.60;40.42
36932;BME280;22847;42.654;23.370;2022-07-03T10:06:09;95026.84;;;31.83;38.44
36932;BME280;22847;42.654;23.370;2022-07-03T10:08:35;95022.50;;;31.77;39.63
36932;BME280;22847;42.654;23.370;2022-07-03T10:11:01;94990.97;;;31.82;39.71
36932;BME280;22847;42.654;23.370;2022-07-03T10:13:27;94969.34;;;31.67;34.94
36932;BME280;22847;42.654;23.370;2022-07-03T10:15:53;94705.69;;;29.70;33.17
36932;BME280;22847;42.654;23.370;2022-07-03T10:18:20;95041.69;;;31.96;33.07
36932;BME280;22847;42.654;23.370;2022-07-03T10:20:49;94791.06;;;30.78;33.00
36932;BME280;22847;42.654;23.370;2022-07-03T10:23:16;94956.69;;;31.73;33.37
36932;BME280;22847;42.654;23.370;2022-07-03T10:25:43;94857.16;;;31.26;32.70
36932;BME280;22847;42.654;23.370;2022-07-03T10:28:13;94909.72;;;31.54;32.14
36932;BME280;22847;42.654;23.370;2022-07-03T10:30:39;94675.72;;;30.09;32.63
36932;BME280;22847;42.654;23.370;2022-07-03T10:33:05;94818.56;;;30.95;32.59
36932;BME280;22847;42.654;23.370;2022-07-03T10:40:32;94981.72;;;31.43;34.88
36932;BME280;22847;42.654;23.370;2022-07-03T10:43:25;94814.91;;;30.39;31.97
36932;BME280;22847;42.654;23.370;2022-07-03T10:46:14;94943.03;;;30.97;32.68
36932;BME280;22847;42.654;23.370;2022-07-03T10:49:09;94987.84;;;31.23;34.72
36932;BME280;22847;42.654;23.370;2022-07-03T10:54:27;94999.56;;;30.92;34.15
36932;BME280;22847;42.654;23.370;2022-07-03T10:57:04;94983.34;;;30.82;37.20
36932;BME280;22847;42.654;23.370;2022-07-03T11:10:29;94953.72;;;30.82;36.42
36932;BME280;22847;42.654;23.370;2022-07-03T11:13:14;94961.59;;;30.93;36.31
36932;BME280;22847;42.654;23.370;2022-07-03T11:15:48;94945.56;;;30.56;34.94
36932;BME280;22847;42.654;23.370;2022-07-03T11:18:19;94955.75;;;30.54;34.96
36932;BME280;22847;42.654;23.370;2022-07-03T11:25:43;94970.22;;;30.43;37.62
36932;BME280;22847;42.654;23.370;2022-07-03T11:33:46;94962.03;;;30.28;35.97
36932;BME280;22847;42.654;23.370;2022-07-03T11:38:45;94807.00;;;29.70;33.47
36932;BME280;22847;42.654;23.370;2022-07-03T11:41:13;94835.34;;;30.30;34.42
36932;BME280;22847;42.654;23.370;2022-07-03T11:43:49;94906.00;;;30.67;35.78
36932;BME280;22847;42.654;23.370;2022-07-03T11:46:19;94912.78;;;30.85;36.02
36932;BME280;22847;42.654;23.370;2022-07-03T11:48:44;94753.38;;;29.90;37.08
36932;BME280;22847;42.654;23.370;2022-07-03T11:51:10;94921.19;;;30.93;37.00
36932;BME280;22847;42.654;23.370;2022-07-03T11:53:37;94906.66;;;30.99;35.87
36932;BME280;22847;42.654;23.370;2022-07-03T11:56:08;94731.28;;;29.83;35.66
36932;BME280;22847;42.654;23.370;2022-07-03T11:58:48;94905.25;;;30.77;36.05
36932;BME280;22847;42.654;23.370;2022-07-03T12:09:24;94904.28;;;31.13;37.89
36932;BME280;22847;42.654;23.370;2022-07-03T12:14:43;94730.81;;;29.96;38.56
36932;BME280;22847;42.654;23.370;2022-07-03T12:17:27;94900.25;;;31.06;39.59
36932;BME280;22847;42.654;23.370;2022-07-03T12:19:54;94917.69;;;30.88;38.05
36932;BME280;22847;42.654;23.370;2022-07-03T12:22:44;94910.16;;;31.00;38.41
36932;BME280;22847;42.654;23.370;2022-07-03T12:25:11;94890.03;;;31.23;37.81
36932;BME280;22847;42.654;23.370;2022-07-03T12:27:42;94814.78;;;30.71;37.40
36932;BME280;22847;42.654;23.370;2022-07-03T12:30:10;94891.66;;;31.19;39.38
36932;BME280;22847;42.654;23.370;2022-07-03T12:32:37;94833.69;;;31.01;35.81
36932;BME280;22847;42.654;23.370;2022-07-03T12:35:03;94873.06;;;31.42;35.09
36932;BME280;22847;42.654;23.370;2022-07-03T12:37:39;94861.19;;;31.54;38.66
36932;BME280;22847;42.654;23.370;2022-07-03T12:40:12;94878.47;;;31.58;36.24
36932;BME280;22847;42.654;23.370;2022-07-03T12:42:46;94888.16;;;31.54;39.67
36932;BME280;22847;42.654;23.370;2022-07-03T12:45:14;94895.41;;;31.03;41.26
36932;BME280;22847;42.654;23.370;2022-07-03T12:47:40;94880.88;;;31.29;38.75
36932;BME280;22847;42.654;23.370;2022-07-03T12:50:07;94885.47;;;31.38;37.04
36932;BME280;22847;42.654;23.370;2022-07-03T12:52:33;94851.97;;;30.99;37.32
36932;BME280;22847;42.654;23.370;2022-07-03T12:55:00;94876.25;;;31.09;36.79
36932;BME280;22847;42.654;23.370;2022-07-03T12:57:26;94891.91;;;31.17;36.82
36932;BME280;22847;42.654;23.370;2022-07-03T13:00:12;94881.69;;;31.34;36.92
36932;BME280;22847;42.654;23.370;2022-07-03T13:02:42;94882.50;;;31.50;36.04
36932;BME280;22847;42.654;23.370;2022-07-03T13:05:19;94842.59;;;31.27;36.49
36932;BME280;22847;42.654;23.370;2022-07-03T13:07:47;94836.94;;;31.23;35.63
36932;BME280;22847;42.654;23.370;2022-07-03T13:10:14;94706.72;;;30.37;35.25
36932;BME280;22847;42.654;23.370;2022-07-03T13:12:49;94877.38;;;31.43;36.50
36932;BME280;22847;42.654;23.370;2022-07-03T13:15:15;94878.97;;;31.39;35.11
36932;BME280;22847;42.654;23.370;2022-07-03T13:17:55;94881.97;;;31.43;35.11
36932;BME280;22847;42.654;23.370;2022-07-03T13:20:30;94853.06;;;31.03;41.31
36932;BME280;22847;42.654;23.370;2022-07-03T13:23:00;94879.78;;;31.20;42.96
36932;BME280;22847;42.654;23.370;2022-07-03T13:25:27;94871.69;;;31.15;43.58
36932;BME280;22847;42.654;23.370;2022-07-03T13:30:31;94891.00;;;30.86;43.30
36932;BME280;22847;42.654;23.370;2022-07-03T13:32:56;94834.69;;;30.75;43.19
36932;BME280;22847;42.654;23.370;2022-07-03T13:35:22;94848.66;;;30.67;44.53
36932;BME280;22847;42.654;23.370;2022-07-03T13:37:47;94856.19;;;30.65;41.53
36932;BME280;22847;42.654;23.370;2022-07-03T13:40:13;94813.25;;;30.33;42.07
36932;BME280;22847;42.654;23.370;2022-07-03T13:42:39;94816.84;;;30.53;42.78
36932;BME280;22847;42.654;23.370;2022-07-03T13:45:04;94826.53;;;30.49;41.76
36932;BME280;22847;42.654;23.370;2022-07-03T13:47:30;94814.16;;;30.48;43.32
36932;BME280;22847;42.654;23.370;2022-07-03T13:49:56;94687.91;;;29.64;41.71
36932;BME280;22847;42.654;23.370;2022-07-03T13:52:21;94858.94;;;30.90;42.09
36932;BME280;22847;42.654;23.370;2022-07-03T13:54:47;94874.06;;;30.96;40.36
36932;BME280;22847;42.654;23.370;2022-07-03T13:57:13;94851.19;;;31.04;40.50
36932;BME280;22847;42.654;23.370;2022-07-03T13:59:39;94832.91;;;31.11;39.66
36932;BME280;22847;42.654;23.370;2022-07-03T14:02:04;94835.81;;;30.89;40.01
36932;BME280;22847;42.654;23.370;2022-07-03T14:04:30;94511.25;;;28.72;40.81
36932;BME280;22847;42.654;23.370;2022-07-03T14:06:57;94514.47;;;28.74;42.46
36932;BME280;22847;42.654;23.370;2022-07-03T14:09:22;94698.84;;;30.10;41.94
36932;BME280;22847;42.654;23.370;2022-07-03T14:11:48;94671.06;;;29.84;41.14
36932;BME280;22847;42.654;23.370;2022-07-03T14:14:15;94841.72;;;30.86;42.32
36932;BME280;22847;42.654;23.370;2022-07-03T14:16:41;94836.28;;;30.66;42.04
36932;BME280;22847;42.654;23.370;2022-07-03T14:19:06;94793.63;;;30.32;42.42
36932;BME280;22847;42.654;23.370;2022-07-03T14:21:33;94788.44;;;30.10;42.38
36932;BME280;22847;42.654;23.370;2022-07-03T14:23:59;94817.22;;;30.15;43.09
36932;BME280;22847;42.654;23.370;2022-07-03T14:26:24;94801.56;;;30.02;42.93